sensor_id;sensor_type;location;lat;lon;timestamp;pressure;altitude;pressure_sealevel;temperature;humidity
71716;BME280;59568;52.128;5.434;2023-08-06T00:01:38;100586.59;;;14.39;100.00
71716;BME280;59568;52.128;5.434;2023-08-06T00:04:05;100575.16;;;14.35;100.00
71716;BME280;59568;52.128;5.434;2023-08-06T00:06:32;100578.25;;;14.37;100.00
71716;BME280;59568;52.128;5.434;2023-08-06T00:08:58;100578.56;;;14.36;100.00
71716;BME280;59568;52.128;5.434;2023-08-06T00:11:25;100585.69;;;14.35;100.00
71716;BME280;59568;52.128;5.434;2023-08-06T00:13:52;100580.41;;;14.35;100.00
71716;BME280;59568;52.128;5.434;2023-08-06T00:16:18;100575.16;;;14.35;100.00
71716;BME280;59568;52.128;5.434;2023-08-06T00:18:45;100568.78;;;14.36;100.00
71716;BME280;59568;52.128;5.434;2023-08-06T00:21:12;100575.59;;;14.37;100.00
71716;BME280;59568;52.128;5.434;2023-08-06T00:23:40;100573.59;;;14.34;100.00
71716;BME280;59568;52.128;5.434;2023-08-06T00:26:08;100569.75;;;14.32;100.00
71716;BME280;59568;52.128;5.434;2023-08-06T00:28:34;100575.91;;;14.36;100.00
71716;BME280;59568;52.128;5.434;2023-08-06T00:31:01;100570.34;;;14.37;100.00
71716;BME280;59568;52.128;5.434;2023-08-06T00:33:27;100571.13;;;14.38;100.00
71716;BME280;59568;52.128;5.434;2023-08-06T00:35:54;100568.78;;;14.36;100.00
71716;BME280;59568;52.128;5.434;2023-08-06T00:38:21;100561.72;;;14.37;100.00
71716;BME280;59568;52.128;5.434;2023-08-06T00:40:48;100572.97;;;14.37;100.00
71716;BME280;59568;52.128;5.434;2023-08-06T00:43:14;100571.44;;;14.36;100.00
71716;BME280;59568;52.128;5.434;2023-08-06T00:45:43;100574.50;;;14.38;100.00
71716;BME280;59568;52.128;5.434;2023-08-06T00:48:09;100566.63;;;14.38;100.00
71716;BME280;59568;52.128;5.434;2023-08-06T00:50:36;100564.66;;;14.35;100.00
71716;BME280;59568;52.128;5.434;2023-08-06T00:53:03;100563.88;;;14.35;100.00
71716;BME280;59568;52.128;5.434;2023-08-06T00:55:30;100564.66;;;14.35;100.00
71716;BME280;59568;52.128;5.434;2023-08-06T00:57:57;100570.97;;;14.34;100.00
71716;BME280;59568;52.128;5.434;2023-08-06T01:00:25;100568.50;;;14.38;100.00
71716;BME280;59568;52.128;5.434;2023-08-06T01:02:53;100569.13;;;14.35;100.00
71716;BME280;59568;52.128;5.434;2023-08-06T01:05:21;100569.91;;;14.35;100.00
71716;BME280;59568;52.128;5.434;2023-08-06T01:13:16;100560.91;;;14.36;100.00
71716;BME280;59568;52.128;5.434;2023-08-06T01:15:49;100564.00;;;14.38;100.00
71716;BME280;59568;52.128;5.434;2023-08-06T01:18:16;100558.28;;;14.36;100.00
71716;BME280;59568;52.128;5.434;2023-08-06T01:20:43;100554.59;;;14.37;100.00
71716;BME280;59568;52.128;5.434;2023-08-06T01:23:09;100560.28;;;14.39;100.00
71716;BME280;59568;52.128;5.434;2023-08-06T01:25:46;100560.91;;;14.36;100.00
71716;BME280;59568;52.128;5.434;2023-08-06T01:28:27;100544.38;;;14.36;100.00
71716;BME280;59568;52.128;5.434;2023-08-06T01:30:59;100562.47;;;14.37;100.00
71716;BME280;59568;52.128;5.434;2023-08-06T01:33:30;100560.28;;;14.39;100.00
71716;BME280;59568;52.128;5.434;2023-08-06T01:35:58;100563.22;;;14.38;100.00
71716;BME280;59568;52.128;5.434;2023-08-06T01:38:25;100564.66;;;14.35;100.00
71716;BME280;59568;52.128;5.434;2023-08-06T01:40:54;100565.56;;;14.39;100.00
71716;BME280;59568;52.128;5.434;2023-08-06T01:43:21;100562.47;;;14.37;100.00
71716;BME280;59568;52.128;5.434;2023-08-06T01:45:48;100556.75;;;14.35;100.00
71716;BME280;59568;52.128;5.434;2023-08-06T01:48:15;100562.31;;;14.34;100.00
71716;BME280;59568;52.128;5.434;2023-08-06T01:50:41;100564.19;;;14.33;100.00
71716;BME280;59568;52.128;5.434;2023-08-06T01:53:08;100566.06;;;14.33;100.00
71716;BME280;59568;52.128;5.434;2023-08-06T01:55:35;100564.19;;;14.33;100.00
71716;BME280;59568;52.128;5.434;2023-08-06T01:58:01;100568.69;;;14.33;100.00
71716;BME280;59568;52.128;5.434;2023-08-06T02:00:29;100571.75;;;14.35;100.00
71716;BME280;59568;52.128;5.434;2023-08-06T02:02:56;100572.84;;;14.34;100.00
71716;BME280;59568;52.128;5.434;2023-08-06T02:05:22;100572.06;;;14.33;100.00
71716;BME280;59568;52.128;5.434;2023-08-06T02:07:49;100569.91;;;14.35;100.00
71716;BME280;59568;52.128;5.434;2023-08-06T02:10:16;100568.03;;;14.36;100.00
71716;BME280;59568;52.128;5.434;2023-08-06T02:12:42;100573.44;;;14.39;100.00
71716;BME280;59568;52.128;5.434;2023-08-06T02:15:09;100568.34;;;14.34;100.00
71716;BME280;59568;52.128;5.434;2023-08-06T02:17:36;100568.69;;;14.33;100.00
71716;BME280;59568;52.128;5.434;2023-08-06T02:20:03;100567.13;;;14.32;100.00
71716;BME280;59568;52.128;5.434;2023-08-06T02:22:29;100565.91;;;14.29;100.00
71716;BME280;59568;52.128;5.434;2023-08-06T02:24:56;100566.22;;;14.28;100.00
71716;BME280;59568;52.128;5.434;2023-08-06T02:27:23;100569.31;;;14.30;100.00
71716;BME280;59568;52.128;5.434;2023-08-06T02:29:49;100559.09;;;14.28;100.00
71716;BME280;59568;52.128;5.434;2023-08-06T02:32:16;100563.91;;;14.26;100.00
71716;BME280;59568;52.128;5.434;2023-08-06T02:34:42;100565.00;;;14.25;100.00
71716;BME280;59568;52.128;5.434;2023-08-06T02:37:09;100567.31;;;14.27;100.00
71716;BME280;59568;52.128;5.434;2023-08-06T02:39:35;100563.44;;;14.24;100.00
71716;BME280;59568;52.128;5.434;2023-08-06T02:42:09;100558.19;;;14.24;100.00
71716;BME280;59568;52.128;5.434;2023-08-06T02:44:35;100560.81;;;14.24;100.00
71716;BME280;59568;52.128;5.434;2023-08-06T02:47:02;100568.09;;;14.27;100.00
71716;BME280;59568;52.128;5.434;2023-08-06T02:49:29;100562.06;;;14.27;100.00
71716;BME280;59568;52.128;5.434;2023-08-06T02:51:55;100554.50;;;14.25;100.00
71716;BME280;59568;52.128;5.434;2023-08-06T02:54:22;100557.56;;;14.27;100.00
71716;BME280;59568;52.128;5.434;2023-08-06T02:56:49;100552.31;;;14.27;100.00
71716;BME280;59568;52.128;5.434;2023-08-06T02:59:16;100553.84;;;14.28;100.00
71716;BME280;59568;52.128;5.434;2023-08-06T03:01:43;100550.91;;;14.30;100.00
71716;BME280;59568;52.128;5.434;2023-08-06T03:04:09;100545.97;;;14.28;100.00
71716;BME280;59568;52.128;5.434;2023-08-06T03:06:36;100547.81;;;14.28;100.00
71716;BME280;59568;52.128;5.434;2023-08-06T03:09:03;100540.25;;;14.26;100.00
71716;BME280;59568;52.128;5.434;2023-08-06T03:11:30;100532.81;;;14.28;100.00
71716;BME280;59568;52.128;5.434;2023-08-06T03:13:57;100539.63;;;14.29;100.00
71716;BME280;59568;52.128;5.434;2023-08-06T03:16:23;100538.22;;;14.32;100.00
71716;BME280;59568;52.128;5.434;2023-08-06T03:18:50;100538.22;;;14.32;100.00
71716;BME280;59568;52.128;5.434;2023-08-06T03:21:17;100547.50;;;14.29;100.00
71716;BME280;59568;52.128;5.434;2023-08-06T03:23:46;100539.63;;;14.29;100.00
71716;BME280;59568;52.128;5.434;2023-08-06T03:26:13;100541.03;;;14.27;100.00
71716;BME280;59568;52.128;5.434;2023-08-06T03:28:40;100544.13;;;14.29;100.00
71716;BME280;59568;52.128;5.434;2023-08-06T03:31:06;100543.97;;;14.25;100.00
71716;BME280;59568;52.128;5.434;2023-08-06T03:33:33;100551.22;;;14.28;100.00
71716;BME280;59568;52.128;5.434;2023-08-06T03:36:00;100542.25;;;14.29;100.00
71716;BME280;59568;52.128;5.434;2023-08-06T03:38:27;100542.88;;;14.26;100.00
71716;BME280;59568;52.128;5.434;2023-08-06T03:40:54;100550.75;;;14.26;100.00
71716;BME280;59568;52.128;5.434;2023-08-06T03:43:21;100552.31;;;14.27;100.00
71716;BME280;59568;52.128;5.434;2023-08-06T03:45:47;100540.25;;;14.26;100.00
71716;BME280;59568;52.128;5.434;2023-08-06T03:48:14;100544.88;;;14.29;100.00
71716;BME280;59568;52.128;5.434;2023-08-06T03:50:41;100550.16;;;14.29;100.00
71716;BME280;59568;52.128;5.434;2023-08-06T03:53:07;100549.69;;;14.27;100.00
71716;BME280;59568;52.128;5.434;2023-08-06T03:55:34;100551.22;;;14.28;100.00
71716;BME280;59568;52.128;5.434;2023-08-06T03:58:01;100550.44;;;14.28;100.00
71716;BME280;59568;52.128;5.434;2023-08-06T04:00:27;100550.75;;;14.26;100.00
71716;BME280;59568;52.128;5.434;2023-08-06T04:02:54;100551.56;;;14.27;100.00
71716;BME280;59568;52.128;5.434;2023-08-06T04:05:21;100545.38;;;14.23;100.00
71716;BME280;59568;52.128;5.434;2023-08-06T04:07:48;100549.69;;;14.27;100.00
71716;BME280;59568;52.128;5.434;2023-08-06T04:10:15;100547.06;;;14.27;100.00
71716;BME280;59568;52.128;5.434;2023-08-06T04:12:41;100550.16;;;14.29;100.00
71716;BME280;59568;52.128;5.434;2023-08-06T04:15:08;100547.50;;;14.29;100.00
71716;BME280;59568;52.128;5.434;2023-08-06T04:17:35;100546.41;;;14.30;100.00
71716;BME280;59568;52.128;5.434;2023-08-06T04:20:01;100544.13;;;14.29;100.00
71716;BME280;59568;52.128;5.434;2023-08-06T04:22:29;100552.47;;;14.31;100.00
71716;BME280;59568;52.128;5.434;2023-08-06T04:24:55;100554.28;;;14.30;100.00
71716;BME280;59568;52.128;5.434;2023-08-06T04:27:22;100558.34;;;14.28;100.00
71716;BME280;59568;52.128;5.434;2023-08-06T04:29:49;100558.34;;;14.28;100.00
71716;BME280;59568;52.128;5.434;2023-08-06T04:32:15;100556.16;;;14.30;100.00
71716;BME280;59568;52.128;5.434;2023-08-06T04:34:43;100558.03;;;14.29;100.00
71716;BME280;59568;52.128;5.434;2023-08-06T04:37:10;100561.09;;;14.31;100.00
71716;BME280;59568;52.128;5.434;2023-08-06T04:39:37;100560.81;;;14.33;100.00
71716;BME280;59568;52.128;5.434;2023-08-06T04:42:04;100565.41;;;14.36;100.00
71716;BME280;59568;52.128;5.434;2023-08-06T04:44:31;100571.44;;;14.36;100.00
71716;BME280;59568;52.128;5.434;2023-08-06T04:46:57;100574.19;;;14.40;100.00
71716;BME280;59568;52.128;5.434;2023-08-06T04:49:25;100574.34;;;14.44;100.00
71716;BME280;59568;52.128;5.434;2023-08-06T04:51:51;100568.00;;;14.45;100.00
71716;BME280;59568;52.128;5.434;2023-08-06T04:54:18;100562.88;;;14.48;100.00
71716;BME280;59568;52.128;5.434;2023-08-06T04:56:45;100561.47;;;14.51;100.00
71716;BME280;59568;52.128;5.434;2023-08-06T04:59:12;100571.34;;;14.54;100.00
71716;BME280;59568;52.128;5.434;2023-08-06T05:01:38;100572.28;;;14.58;100.00
71716;BME280;59568;52.128;5.434;2023-08-06T05:04:05;100577.53;;;14.58;100.00
71716;BME280;59568;52.128;5.434;2023-08-06T05:06:32;100574.59;;;14.60;100.00
71716;BME280;59568;52.128;5.434;2023-08-06T05:08:59;100571.66;;;14.61;100.00
71716;BME280;59568;52.128;5.434;2023-08-06T05:11:25;100581.84;;;14.63;100.00
71716;BME280;59568;52.128;5.434;2023-08-06T05:13:52;100576.91;;;14.61;100.00
71716;BME280;59568;52.128;5.434;2023-08-06T05:16:19;100584.47;;;14.63;100.00
71716;BME280;59568;52.128;5.434;2023-08-06T05:18:45;100578.44;;;14.62;100.00
71716;BME280;59568;52.128;5.434;2023-08-06T05:21:13;100596.09;;;14.62;100.00
71716;BME280;59568;52.128;5.434;2023-08-06T05:23:39;100603.66;;;14.63;100.00
71716;BME280;59568;52.128;5.434;2023-08-06T05:26:06;100605.19;;;14.64;100.00
71716;BME280;59568;52.128;5.434;2023-08-06T05:28:34;100613.09;;;14.64;100.00
71716;BME280;59568;52.128;5.434;2023-08-06T05:31:06;100610.00;;;14.62;100.00
71716;BME280;59568;52.128;5.434;2023-08-06T05:33:33;100603.97;;;14.62;100.00
71716;BME280;59568;52.128;5.434;2023-08-06T05:35:59;100604.75;;;14.62;100.00
71716;BME280;59568;52.128;5.434;2023-08-06T05:38:26;100613.72;;;14.61;100.00
71716;BME280;59568;52.128;5.434;2023-08-06T05:40:53;100611.09;;;14.61;100.00
71716;BME280;59568;52.128;5.434;2023-08-06T05:43:20;100618.53;;;14.59;100.00
71716;BME280;59568;52.128;5.434;2023-08-06T05:45:49;100624.25;;;14.61;100.00
71716;BME280;59568;52.128;5.434;2023-08-06T05:48:16;100624.25;;;14.61;100.00
71716;BME280;59568;52.128;5.434;2023-08-06T05:50:43;100631.03;;;14.62;100.00
71716;BME280;59568;52.128;5.434;2023-08-06T05:53:10;100631.78;;;14.63;100.00
71716;BME280;59568;52.128;5.434;2023-08-06T05:55:36;100632.13;;;14.61;100.00
71716;BME280;59568;52.128;5.434;2023-08-06T05:58:03;100633.22;;;14.60;100.00
71716;BME280;59568;52.128;5.434;2023-08-06T06:00:29;100634.88;;;14.65;100.00
71716;BME280;59568;52.128;5.434;2023-08-06T06:02:56;100637.84;;;14.63;100.00
71716;BME280;59568;52.128;5.434;2023-08-06T06:05:23;100645.41;;;14.65;100.00
71716;BME280;59568;52.128;5.434;2023-08-06T06:07:49;100641.84;;;14.69;100.00
71716;BME280;59568;52.128;5.434;2023-08-06T06:10:17;100645.53;;;14.68;100.00
71716;BME280;59568;52.128;5.434;2023-08-06T06:12:44;100657.41;;;14.74;100.00
71716;BME280;59568;52.128;5.434;2023-08-06T06:15:11;100651.53;;;14.77;100.00
71716;BME280;59568;52.128;5.434;2023-08-06T06:17:37;100646.59;;;14.76;100.00
71716;BME280;59568;52.128;5.434;2023-08-06T06:20:05;100668.41;;;14.76;100.00
71716;BME280;59568;52.128;5.434;2023-08-06T06:22:32;100660.97;;;14.78;100.00
71716;BME280;59568;52.128;5.434;2023-08-06T06:24:59;100660.66;;;14.80;100.00
71716;BME280;59568;52.128;5.434;2023-08-06T06:27:25;100662.97;;;14.82;100.00
71716;BME280;59568;52.128;5.434;2023-08-06T06:29:52;100670.34;;;14.88;100.00
71716;BME280;59568;52.128;5.434;2023-08-06T06:32:21;100662.78;;;14.87;100.00
71716;BME280;59568;52.128;5.434;2023-08-06T06:34:48;100675.75;;;14.92;100.00
71716;BME280;59568;52.128;5.434;2023-08-06T06:37:15;100673.56;;;14.94;100.00
71716;BME280;59568;52.128;5.434;2023-08-06T06:39:41;100675.91;;;14.95;100.00
71716;BME280;59568;52.128;5.434;2023-08-06T06:42:08;100674.84;;;14.88;100.00
71716;BME280;59568;52.128;5.434;2023-08-06T06:44:35;100680.41;;;14.86;100.00
71716;BME280;59568;52.128;5.434;2023-08-06T06:47:01;100683.81;;;14.87;100.00
71716;BME280;59568;52.128;5.434;2023-08-06T06:49:28;100686.44;;;14.87;100.00
71716;BME280;59568;52.128;5.434;2023-08-06T06:51:55;100684.47;;;14.84;100.00
71716;BME280;59568;52.128;5.434;2023-08-06T06:54:22;100687.25;;;14.78;100.00
71716;BME280;59568;52.128;5.434;2023-08-06T06:56:48;100680.63;;;14.81;100.00
71716;BME280;59568;52.128;5.434;2023-08-06T06:59:15;100681.25;;;14.78;100.00
71716;BME280;59568;52.128;5.434;2023-08-06T07:01:42;100685.09;;;14.81;100.00
71716;BME280;59568;52.128;5.434;2023-08-06T07:04:08;100681.38;;;14.82;100.00
71716;BME280;59568;52.128;5.434;2023-08-06T07:06:35;100686.66;;;14.82;100.00
71716;BME280;59568;52.128;5.434;2023-08-06T07:09:01;100689.88;;;14.87;100.00
71716;BME280;59568;52.128;5.434;2023-08-06T07:11:28;100683.97;;;14.90;100.00
71716;BME280;59568;52.128;5.434;2023-08-06T07:14:01;100681.19;;;14.87;100.00
71716;BME280;59568;52.128;5.434;2023-08-06T07:16:28;100683.19;;;14.90;100.00
71716;BME280;59568;52.128;5.434;2023-08-06T07:18:55;100691.53;;;14.92;100.00
71716;BME280;59568;52.128;5.434;2023-08-06T07:21:22;100690.13;;;14.94;100.00
71716;BME280;59568;52.128;5.434;2023-08-06T07:23:49;100684.41;;;14.92;100.00
71716;BME280;59568;52.128;5.434;2023-08-06T07:26:16;100691.81;;;14.99;100.00
71716;BME280;59568;52.128;5.434;2023-08-06T07:28:43;100698.75;;;15.04;100.00
71716;BME280;59568;52.128;5.434;2023-08-06T07:31:11;100697.94;;;15.12;100.00
71716;BME280;59568;52.128;5.434;2023-08-06T07:33:38;100704.72;;;15.13;100.00
71716;BME280;59568;52.128;5.434;2023-08-06T07:36:12;100706.41;;;15.17;100.00
71716;BME280;59568;52.128;5.434;2023-08-06T07:38:39;100708.72;;;15.19;100.00
71716;BME280;59568;52.128;5.434;2023-08-06T07:41:06;100705.75;;;15.21;100.00
71716;BME280;59568;52.128;5.434;2023-08-06T07:43:32;100700.50;;;15.21;100.00
71716;BME280;59568;52.128;5.434;2023-08-06T07:46:00;100703.91;;;15.21;100.00
71716;BME280;59568;52.128;5.434;2023-08-06T07:48:27;100710.84;;;15.26;100.00
71716;BME280;59568;52.128;5.434;2023-08-06T07:50:57;100712.38;;;15.27;100.00
71716;BME280;59568;52.128;5.434;2023-08-06T07:53:25;100703.28;;;15.24;100.00
71716;BME280;59568;52.128;5.434;2023-08-06T07:55:56;100711.16;;;15.24;100.00
71716;BME280;59568;52.128;5.434;2023-08-06T07:58:24;100709.50;;;15.20;100.00
71716;BME280;59568;52.128;5.434;2023-08-06T08:00:55;100710.44;;;15.15;100.00
71716;BME280;59568;52.128;5.434;2023-08-06T08:03:23;100706.59;;;15.12;100.00
71716;BME280;59568;52.128;5.434;2023-08-06T08:05:54;100715.59;;;15.11;100.00
71716;BME280;59568;52.128;5.434;2023-08-06T08:08:25;100711.84;;;15.12;100.00
71716;BME280;59568;52.128;5.434;2023-08-06T08:10:55;100714.03;;;15.10;100.00
71716;BME280;59568;52.128;5.434;2023-08-06T08:13:26;100708.78;;;15.10;100.00
71716;BME280;59568;52.128;5.434;2023-08-06T08:15:59;100719.75;;;15.12;100.00
71716;BME280;59568;52.128;5.434;2023-08-06T08:18:28;100716.03;;;15.13;100.00
71716;BME280;59568;52.128;5.434;2023-08-06T08:20:56;100718.78;;;15.17;100.00
71716;BME280;59568;52.128;5.434;2023-08-06T08:23:26;100716.59;;;15.19;100.00
71716;BME280;59568;52.128;5.434;2023-08-06T08:25:53;100721.09;;;15.18;100.00
71716;BME280;59568;52.128;5.434;2023-08-06T08:28:21;100722.84;;;15.14;100.00
71716;BME280;59568;52.128;5.434;2023-08-06T08:30:51;100725.00;;;15.12;100.00
71716;BME280;59568;52.128;5.434;2023-08-06T08:33:21;100723.66;;;15.06;100.00
71716;BME280;59568;52.128;5.434;2023-08-06T08:35:50;100725.84;;;15.04;100.00
71716;BME280;59568;52.128;5.434;2023-08-06T08:38:19;100729.13;;;15.01;100.00
71716;BME280;59568;52.128;5.434;2023-08-06T08:40:50;100729.28;;;14.96;100.00
71716;BME280;59568;52.128;5.434;2023-08-06T08:43:23;100734.59;;;14.87;100.00
71716;BME280;59568;52.128;5.434;2023-08-06T08:45:51;100734.75;;;14.82;100.00
71716;BME280;59568;52.128;5.434;2023-08-06T08:48:19;100745.13;;;14.78;100.00
71716;BME280;59568;52.128;5.434;2023-08-06T08:50:49;100742.38;;;14.75;100.00
71716;BME280;59568;52.128;5.434;2023-08-06T08:53:23;100743.94;;;14.67;100.00
71716;BME280;59568;52.128;5.434;2023-08-06T08:55:50;100743.31;;;14.70;100.00
71716;BME280;59568;52.128;5.434;2023-08-06T08:58:35;100747.34;;;14.68;100.00
71716;BME280;59568;52.128;5.434;2023-08-06T09:01:04;100754.00;;;14.65;100.00
71716;BME280;59568;52.128;5.434;2023-08-06T09:03:34;100755.84;;;14.65;100.00
71716;BME280;59568;52.128;5.434;2023-08-06T09:06:03;100761.91;;;14.65;100.00
71716;BME280;59568;52.128;5.434;2023-08-06T09:08:39;100759.13;;;14.62;100.00
71716;BME280;59568;52.128;5.434;2023-08-06T09:11:11;100760.03;;;14.66;100.00
71716;BME280;59568;52.128;5.434;2023-08-06T09:13:38;100762.81;;;14.69;100.00
71716;BME280;59568;52.128;5.434;2023-08-06T09:16:05;100766.53;;;14.68;100.00
71716;BME280;59568;52.128;5.434;2023-08-06T09:18:33;100768.69;;;14.66;100.00
71716;BME280;59568;52.128;5.434;2023-08-06T09:21:01;100766.53;;;14.68;100.00
71716;BME280;59568;52.128;5.434;2023-08-06T09:23:29;100783.06;;;14.77;100.00
71716;BME280;59568;52.128;5.434;2023-08-06T09:25:57;100783.81;;;14.78;100.00
71716;BME280;59568;52.128;5.434;2023-08-06T09:28:36;100777.34;;;14.75;100.00
71716;BME280;59568;52.128;5.434;2023-08-06T09:31:05;100784.78;;;14.73;100.00
71716;BME280;59568;52.128;5.434;2023-08-06T09:33:36;100782.75;;;14.70;100.00
71716;BME280;59568;52.128;5.434;2023-08-06T09:36:12;100782.75;;;14.70;100.00
71716;BME280;59568;52.128;5.434;2023-08-06T09:38:46;100790.94;;;14.77;100.00
71716;BME280;59568;52.128;5.434;2023-08-06T09:41:26;100795.44;;;14.77;100.00
71716;BME280;59568;52.128;5.434;2023-08-06T09:43:56;100801.47;;;14.77;100.00
71716;BME280;59568;52.128;5.434;2023-08-06T09:46:28;100791.56;;;14.74;100.00
71716;BME280;59568;52.128;5.434;2023-08-06T09:49:04;100802.09;;;14.74;100.00
71716;BME280;59568;52.128;5.434;2023-08-06T09:51:39;100795.72;;;14.84;100.00
71716;BME280;59568;52.128;5.434;2023-08-06T09:54:08;100800.56;;;14.73;100.00
71716;BME280;59568;52.128;5.434;2023-08-06T09:56:56;100813.84;;;14.77;100.00
71716;BME280;59568;52.128;5.434;2023-08-06T09:59:25;100810.78;;;14.75;100.00
71716;BME280;59568;52.128;5.434;2023-08-06T10:01:56;100817.25;;;14.77;100.00
71716;BME280;59568;52.128;5.434;2023-08-06T10:04:25;100819.44;;;14.75;100.00
71716;BME280;59568;52.128;5.434;2023-08-06T10:07:04;100819.72;;;14.74;100.00
71716;BME280;59568;52.128;5.434;2023-08-06T10:09:32;100822.81;;;14.76;100.00
71716;BME280;59568;52.128;5.434;2023-08-06T10:12:00;100825.28;;;14.81;100.00
71716;BME280;59568;52.128;5.434;2023-08-06T10:14:32;100832.84;;;14.83;100.00
71716;BME280;59568;52.128;5.434;2023-08-06T10:17:02;100838.44;;;14.81;100.00
71716;BME280;59568;52.128;5.434;2023-08-06T10:19:31;100838.56;;;14.85;100.00
71716;BME280;59568;52.128;5.434;2023-08-06T10:22:10;100842.13;;;14.89;100.00
71716;BME280;59568;52.128;5.434;2023-08-06T10:24:52;100843.97;;;14.97;100.00
71716;BME280;59568;52.128;5.434;2023-08-06T10:27:32;100839.78;;;14.96;100.00
71716;BME280;59568;52.128;5.434;2023-08-06T10:30:25;100839.19;;;14.99;100.00
71716;BME280;59568;52.128;5.434;2023-08-06T10:33:13;100837.91;;;15.05;100.00
71716;BME280;59568;52.128;5.434;2023-08-06T10:35:47;100838.81;;;15.09;100.00
71716;BME280;59568;52.128;5.434;2023-08-06T10:38:26;100851.53;;;15.07;100.00
71716;BME280;59568;52.128;5.434;2023-08-06T10:43:29;100838.19;;;15.12;100.00
71716;BME280;59568;52.128;5.434;2023-08-06T10:46:08;100839.56;;;15.18;100.00
71716;BME280;59568;52.128;5.434;2023-08-06T10:48:40;100846.19;;;15.25;100.00
71716;BME280;59568;52.128;5.434;2023-08-06T10:51:10;100849.28;;;15.27;100.00
71716;BME280;59568;52.128;5.434;2023-08-06T10:53:46;100845.28;;;15.21;100.00
71716;BME280;59568;52.128;5.434;2023-08-06T10:57:14;100839.88;;;15.17;100.00
71716;BME280;59568;52.128;5.434;2023-08-06T11:00:16;100849.63;;;15.16;100.00
71716;BME280;59568;52.128;5.434;2023-08-06T11:03:16;100852.56;;;15.15;100.00
71716;BME280;59568;52.128;5.434;2023-08-06T11:05:52;100852.25;;;15.16;100.00
71716;BME280;59568;52.128;5.434;2023-08-06T11:09:01;100863.53;;;15.17;100.00
71716;BME280;59568;52.128;5.434;2023-08-06T11:11:34;100867.59;;;15.14;100.00
71716;BME280;59568;52.128;5.434;2023-08-06T11:14:16;100866.78;;;15.23;100.00
71716;BME280;59568;52.128;5.434;2023-08-06T11:16:46;100868.16;;;15.29;100.00
71716;BME280;59568;52.128;5.434;2023-08-06T11:19:34;100869.06;;;15.33;100.00
71716;BME280;59568;52.128;5.434;2023-08-06T11:22:06;100869.72;;;15.30;100.00
71716;BME280;59568;52.128;5.434;2023-08-06T11:24:38;100870.97;;;15.24;100.00
71716;BME280;59568;52.128;5.434;2023-08-06T11:27:16;100868.34;;;15.24;100.00
71716;BME280;59568;52.128;5.434;2023-08-06T11:29:44;100881.22;;;15.16;100.00
71716;BME280;59568;52.128;5.434;2023-08-06T11:32:11;100880.75;;;15.14;100.00
71716;BME280;59568;52.128;5.434;2023-08-06T11:34:43;100888.50;;;15.11;100.00
71716;BME280;59568;52.128;5.434;2023-08-06T11:37:09;100882.31;;;15.07;100.00
71716;BME280;59568;52.128;5.434;2023-08-06T11:39:46;100884.97;;;14.98;100.00
71716;BME280;59568;52.128;5.434;2023-08-06T11:42:13;100883.56;;;15.01;100.00
71716;BME280;59568;52.128;5.434;2023-08-06T11:44:40;100890.69;;;15.00;100.00
71716;BME280;59568;52.128;5.434;2023-08-06T11:47:16;100888.38;;;14.98;100.00
71716;BME280;59568;52.128;5.434;2023-08-06T11:49:45;100892.25;;;14.92;100.00
71716;BME280;59568;52.128;5.434;2023-08-06T11:54:46;100879.75;;;14.81;100.00
71716;BME280;59568;52.128;5.434;2023-08-06T11:57:14;100881.16;;;14.78;100.00
71716;BME280;59568;52.128;5.434;2023-08-06T11:59:45;100885.19;;;14.75;100.00
71716;BME280;59568;52.128;5.434;2023-08-06T12:02:12;100875.44;;;14.67;100.00
71716;BME280;59568;52.128;5.434;2023-08-06T12:05:00;100898.03;;;14.68;100.00
71716;BME280;59568;52.128;5.434;2023-08-06T12:07:32;100882.88;;;14.65;100.00
71716;BME280;59568;52.128;5.434;2023-08-06T12:09:59;100886.56;;;14.64;100.00
71716;BME280;59568;52.128;5.434;2023-08-06T12:12:26;100889.22;;;14.64;100.00
71716;BME280;59568;52.128;5.434;2023-08-06T12:14:54;100897.09;;;14.64;100.00
71716;BME280;59568;52.128;5.434;2023-08-06T12:17:21;100898.19;;;14.63;100.00
71716;BME280;59568;52.128;5.434;2023-08-06T12:19:47;100895.84;;;14.70;100.00
71716;BME280;59568;52.128;5.434;2023-08-06T12:22:15;100908.22;;;14.78;100.00
71716;BME280;59568;52.128;5.434;2023-08-06T12:24:42;100909.16;;;14.83;100.00
71716;BME280;59568;52.128;5.434;2023-08-06T12:27:10;100903.28;;;14.86;100.00
71716;BME280;59568;52.128;5.434;2023-08-06T12:29:49;100919.97;;;14.90;100.00
71716;BME280;59568;52.128;5.434;2023-08-06T12:32:18;100913.94;;;14.89;100.00
71716;BME280;59568;52.128;5.434;2023-08-06T12:34:49;100921.69;;;14.86;100.00
71716;BME280;59568;52.128;5.434;2023-08-06T12:37:19;100926.94;;;14.86;100.00
71716;BME280;59568;52.128;5.434;2023-08-06T12:39:46;100915.66;;;14.85;100.00
71716;BME280;59568;52.128;5.434;2023-08-06T12:42:22;100919.69;;;14.91;100.00
71716;BME280;59568;52.128;5.434;2023-08-06T12:44:58;100934.97;;;14.98;100.00
71716;BME280;59568;52.128;5.434;2023-08-06T12:58:01;100942.53;;;15.08;100.00
71716;BME280;59568;52.128;5.434;2023-08-06T13:00:59;100945.16;;;15.08;100.00
71716;BME280;59568;52.128;5.434;2023-08-06T13:03:26;100946.72;;;15.09;100.00
71716;BME280;59568;52.128;5.434;2023-08-06T13:14:09;100967.75;;;15.18;100.00
71716;BME280;59568;52.128;5.434;2023-08-06T13:17:35;100972.56;;;15.16;100.00
71716;BME280;59568;52.128;5.434;2023-08-06T13:20:25;100973.19;;;15.22;100.00
71716;BME280;59568;52.128;5.434;2023-08-06T13:22:57;100965.59;;;15.20;100.00